Payerne Mil, Switzerland

5:58 PM CEST on July 25, 2017 (GMT +0200)
au Pré à Jeanne | | Change Station

Elev 1610 ft 46.86 °N, 6.88 °E | Updated 11 minutes ago

Light Rain Showers
Light Showers Rain
67.1 °F
Feels Like 67.1 °F
N
1.2
Wind Variable Wind from NW
Gusts 4.3 mph

Today
High -- | Low -- °F
--% Chance of Precip.
Yesterday
High -- | Low -- °F
Precip. -- in
Pressure 29.95 in
Visibility 6.2 miles
Clouds Few 700 ft
Mostly Cloudy 2300 ft
Mostly Cloudy 6600 ft
Dew Point 67 °F
Humidity 100%
Rainfall 0.08 in
Snow Depth Not available.
6:03 AM 9:13 PM
Waxing Crescent, 7% visible
METAR LSMP 251350Z 09003KT 020V140 9999 -SHRA FEW007 BKN023 BKN066 16/13 Q1014 RESHRA RMK WHT
Pressure 29.95 in
Visibility 6.2 miles
Clouds Few 700 ft
Mostly Cloudy 2300 ft
Mostly Cloudy 6600 ft
Dew Point 67 °F
Humidity 100%
Rainfall 0.08 in
Snow Depth Not available.
6:03 AM 9:13 PM
Waxing Crescent, 7% visible
METAR LSMP 251350Z 09003KT 020V140 9999 -SHRA FEW007 BKN023 BKN066 16/13 Q1014 RESHRA RMK WHT

Get Severe Weather Alerts

Thanks for signing up!

Be on the lookout for a verification email in your inbox.

You'll start receiving the daily forecast at 6 AM.

×

10-Day Weather Forecast

×

Almanac

Astronomy

Jul. 25, 2017 Rise Set
Actual Time
Civil Twilight
Nautical Twilight
Astronomical Twilight
Moon
Length of Visible Light
Length of Day
Tomorrow will be .
, % of the Moon is Illuminated

Today's Extremes

Country Highs Country Lows

Community

WunderPhotos

Category 6

Welcome to Category 6. This is the collective home for Weather Underground's featured writeups by Dr. Jeff Masters (right), Bob Henson (left), Chris Burt, and other regular contributors.

Nearby

Air Quality

  Air Quality AQ Index Pollutant
Not available.

Snow Depth

Station Depth Elevation

Earthquake Activity

City Distance Mag. Time & Date
Minimum magnitude displayed is 2.5.

Coastal Water Temperatures

Place Temperature

Stations

Nearby Weather Stations

Station Location Temp. Windchill Dew Point Humidity Wind Precip. Elev Updated Type